Terminal Aerodrome Forecast
Issued by NWS Grand Forks, ND

Home | Current Version | Previous Version | Graphics & Text | Print | Product List | Glossary On
Versions: 1 2 3 4 5 6 7 8 9 10 11 12 13 14 15
461
FTUS43 KFGF 240520
TAFFAR
TAF
KFAR 240520Z 2406/2506 VRB06KT P6SM SCT250
      TEMPO 2406/2407 BKN060
     FM241500 29011KT P6SM FEW250
     FM250200 30006KT P6SM FEW250=

USA.gov is the U.S. government's official web portal to all federal, state and local government web resources and services.